Time;durP1;ratioP1;P1;durP2;ratioP2;P2;SDS_P1;SDS_P2;PMS_P1;PMS_P2;Temp;Humidity;BMP_temperature;BMP_pressure;BME280_temperature;BME280_humidity;BME280_pressure;Samples;Min_cycle;Max_cycle;Signal;HPM_P1;HPM_P2
2021/05/14 00:00:22;;;;;;;3.70;3.40;;;10.90;99.90;;;;;;5114563;28;20176;-76
2021/05/14 00:02:48;;;;;;;4.57;4.20;;;11.00;99.90;;;;;;5113479;28;21050;-75
2021/05/14 00:05:14;;;;;;;4.43;4.03;;;10.90;99.90;;;;;;5096861;28;20510;-75
2021/05/14 00:07:39;;;;;;;6.83;3.90;;;10.90;99.90;;;;;;5112189;28;20185;-76
2021/05/14 00:10:07;;;;;;;4.13;3.83;;;10.90;99.90;;;;;;5097800;28;20596;-76
2021/05/14 00:12:33;;;;;;;4.30;3.90;;;11.00;99.90;;;;;;5096372;28;20184;-75
2021/05/14 00:14:58;;;;;;;4.70;4.30;;;11.00;99.90;;;;;;5107323;27;20833;-76
2021/05/14 00:17:24;;;;;;;4.90;3.60;;;11.00;99.90;;;;;;5117047;28;20702;-76
2021/05/14 00:19:49;;;;;;;5.23;4.50;;;11.00;99.90;;;;;;5117574;28;20199;-75
2021/05/14 00:22:15;;;;;;;3.90;3.60;;;11.00;99.90;;;;;;5118056;28;20635;-76
2021/05/14 00:24:40;;;;;;;3.87;3.53;;;11.00;99.90;;;;;;5118056;28;20770;-76
2021/05/14 00:27:06;;;;;;;2.90;2.70;;;11.10;99.90;;;;;;5114890;28;20212;-75
2021/05/14 00:29:31;;;;;;;3.37;2.60;;;11.00;99.90;;;;;;5114361;28;20250;-76
2021/05/14 00:31:57;;;;;;;3.50;2.73;;;11.00;99.90;;;;;;5114642;28;20204;-75
2021/05/14 00:34:22;;;;;;;2.30;2.10;;;11.00;99.90;;;;;;5114627;28;20202;-76
2021/05/14 00:36:48;;;;;;;2.10;1.93;;;10.90;99.90;;;;;;5114502;28;20173;-76
2021/05/14 00:39:14;;;;;;;3.37;3.07;;;11.00;99.90;;;;;;5114902;28;20262;-76
2021/05/14 00:41:40;;;;;;;2.73;2.53;;;11.00;99.90;;;;;;5114741;28;20425;-76
2021/05/14 00:44:34;;;;;;;2.87;2.60;;;11.00;99.90;;;;;;5114652;28;20172;-76
2021/05/14 00:47:02;;;;;;;2.37;2.20;;;11.10;99.90;;;;;;5113256;28;20257;-75
2021/05/14 00:49:28;;;;;;;1.77;1.67;;;11.00;99.90;;;;;;5113798;28;20423;-75
2021/05/14 00:51:58;;;;;;;2.83;2.50;;;11.00;99.90;;;;;;5114413;28;20857;-76
2021/05/14 00:54:25;;;;;;;1.97;1.87;;;11.00;99.90;;;;;;5115251;28;20258;-75
2021/05/14 00:56:50;;;;;;;2.13;2.03;;;10.90;99.90;;;;;;5115298;28;20422;-75
2021/05/14 00:59:16;;;;;;;2.57;2.33;;;11.00;99.90;;;;;;5115415;28;20446;-75
2021/05/14 01:01:41;;;;;;;2.03;1.93;;;10.90;99.90;;;;;;5115882;28;20227;-75
2021/05/14 01:04:07;;;;;;;2.20;2.10;;;11.00;99.90;;;;;;5116348;28;20202;-76
2021/05/14 01:06:32;;;;;;;2.10;2.00;;;10.90;99.90;;;;;;5114615;28;20173;-75
2021/05/14 01:08:59;;;;;;;1.87;1.77;;;11.00;99.90;;;;;;5114090;28;20200;-76
2021/05/14 01:11:25;;;;;;;2.10;2.00;;;11.00;99.90;;;;;;5114009;28;20181;-75
2021/05/14 01:13:50;;;;;;;2.27;2.17;;;11.00;99.90;;;;;;5113439;28;20481;-76
2021/05/14 01:16:16;;;;;;;2.17;1.97;;;11.00;99.90;;;;;;5113846;28;20180;-76
2021/05/14 01:18:41;;;;;;;1.80;1.70;;;10.90;99.90;;;;;;5113856;28;20261;-76
2021/05/14 01:21:07;;;;;;;2.23;2.03;;;10.90;99.90;;;;;;5113881;28;20180;-75
2021/05/14 01:23:32;;;;;;;1.77;1.67;;;10.90;99.90;;;;;;5114299;28;20195;-76
2021/05/14 01:25:58;;;;;;;2.10;1.90;;;11.00;99.90;;;;;;5097352;28;20212;-76
2021/05/14 01:28:24;;;;;;;2.13;1.80;;;10.90;99.90;;;;;;5117262;28;20250;-75
2021/05/14 01:30:49;;;;;;;1.70;1.60;;;10.90;99.90;;;;;;5113701;28;20640;-75
2021/05/14 01:33:15;;;;;;;2.23;2.03;;;10.90;99.90;;;;;;5113750;28;20535;-75
2021/05/14 01:35:40;;;;;;;2.33;2.13;;;10.90;99.90;;;;;;5098983;28;20205;-75
2021/05/14 01:38:07;;;;;;;2.30;2.10;;;10.90;99.90;;;;;;5115077;28;20222;-75
2021/05/14 01:40:37;;;;;;;2.60;2.40;;;10.90;99.90;;;;;;5099382;28;20548;-75
2021/05/14 01:43:03;;;;;;;2.40;2.13;;;10.80;99.90;;;;;;5112043;28;20431;-75
2021/05/14 01:45:28;;;;;;;4.20;2.33;;;10.80;99.90;;;;;;5113233;28;20410;-75
2021/05/14 01:47:54;;;;;;;2.20;2.00;;;10.80;99.90;;;;;;5096278;28;20434;-76
2021/05/14 01:50:20;;;;;;;2.63;1.80;;;10.80;99.90;;;;;;5114086;28;20587;-75
2021/05/14 01:52:46;;;;;;;2.30;2.10;;;10.80;99.90;;;;;;5096578;28;20662;-75
2021/05/14 01:55:12;;;;;;;2.30;1.60;;;10.80;99.90;;;;;;5115326;28;20255;-75
2021/05/14 01:57:37;;;;;;;1.93;1.83;;;10.80;99.90;;;;;;5100371;28;20446;-75
2021/05/14 02:00:05;;;;;;;2.23;2.03;;;10.80;99.90;;;;;;5114769;28;20806;-75
2021/05/14 02:02:31;;;;;;;2.40;2.20;;;10.70;99.90;;;;;;5101754;28;20180;-75
2021/05/14 02:04:56;;;;;;;2.57;2.37;;;10.80;99.90;;;;;;5118538;28;20780;-75
2021/05/14 02:07:22;;;;;;;2.77;2.40;;;10.80;99.90;;;;;;5118094;28;20670;-76
2021/05/14 02:09:48;;;;;;;2.27;2.17;;;10.80;99.90;;;;;;5120253;28;20207;-74
2021/05/14 02:12:13;;;;;;;2.47;2.27;;;10.80;99.90;;;;;;5113981;28;20181;-75
2021/05/14 02:14:39;;;;;;;2.70;2.50;;;10.70;99.90;;;;;;5096830;28;20971;-75
2021/05/14 02:17:05;;;;;;;2.73;2.50;;;10.80;99.90;;;;;;5113763;28;20180;-75
2021/05/14 02:19:30;;;;;;;4.13;2.57;;;10.80;99.90;;;;;;5116698;28;20248;-75
2021/05/14 02:21:56;;;;;;;2.50;2.30;;;10.80;99.90;;;;;;5103344;28;20197;-73
2021/05/14 02:24:21;;;;;;;2.77;2.50;;;10.80;99.90;;;;;;5115981;28;20180;-74
2021/05/14 02:26:47;;;;;;;2.77;2.57;;;10.80;99.90;;;;;;5118021;28;20191;-73
2021/05/14 02:29:12;;;;;;;2.60;2.40;;;10.80;99.90;;;;;;5119768;28;20203;-73
2021/05/14 02:31:38;;;;;;;2.73;2.53;;;10.80;99.90;;;;;;5121137;28;20169;-74
2021/05/14 02:34:03;;;;;;;2.00;1.80;;;10.80;99.90;;;;;;5120734;28;20551;-74
2021/05/14 02:36:29;;;;;;;2.10;2.00;;;10.70;99.90;;;;;;5119334;28;20181;-73
2021/05/14 02:38:54;;;;;;;2.60;2.40;;;10.70;99.90;;;;;;5119159;28;20209;-74
2021/05/14 02:41:20;;;;;;;2.57;2.43;;;10.80;99.90;;;;;;5119052;28;20610;-74
2021/05/14 02:43:46;;;;;;;3.30;3.00;;;10.80;99.90;;;;;;5118772;28;20636;-74
2021/05/14 02:46:11;;;;;;;2.80;2.60;;;10.80;99.90;;;;;;5119196;28;20417;-74
2021/05/14 02:48:37;;;;;;;2.63;2.43;;;10.80;99.90;;;;;;5119795;28;20254;-74
2021/05/14 02:51:04;;;;;;;2.47;2.27;;;10.70;99.90;;;;;;5118596;28;20192;-74
2021/05/14 02:53:30;;;;;;;2.30;2.03;;;10.80;99.90;;;;;;5118983;28;20193;-75
2021/05/14 02:55:55;;;;;;;3.30;3.00;;;10.80;99.90;;;;;;5118626;28;20564;-74
2021/05/14 02:58:21;;;;;;;3.27;2.97;;;10.70;99.90;;;;;;5099682;28;20233;-74
2021/05/14 03:00:46;;;;;;;3.57;2.77;;;10.80;99.90;;;;;;5118441;28;20180;-74
2021/05/14 03:03:12;;;;;;;3.00;2.77;;;10.80;99.90;;;;;;5117713;28;20208;-74
2021/05/14 03:05:37;;;;;;;3.10;2.87;;;10.80;99.90;;;;;;5118098;28;20185;-74
2021/05/14 03:08:03;;;;;;;3.77;3.20;;;10.80;99.90;;;;;;5099323;28;20189;-74
2021/05/14 03:10:29;;;;;;;2.90;2.70;;;10.80;99.90;;;;;;5117908;28;20547;-74
2021/05/14 03:12:54;;;;;;;3.70;3.40;;;10.80;99.90;;;;;;5116828;28;20178;-74
2021/05/14 03:15:20;;;;;;;3.00;2.80;;;10.80;99.90;;;;;;5117565;28;20486;-74
2021/05/14 03:17:45;;;;;;;3.00;2.80;;;10.80;99.90;;;;;;5118098;28;20194;-74
2021/05/14 03:20:11;;;;;;;5.00;4.20;;;10.80;99.90;;;;;;5117156;28;20187;-76
2021/05/14 03:22:37;;;;;;;3.70;3.40;;;10.70;99.90;;;;;;5116920;28;20168;-74
2021/05/14 03:25:04;;;;;;;4.30;3.90;;;10.80;99.90;;;;;;5119340;28;20415;-74
2021/05/14 03:27:29;;;;;;;3.90;3.50;;;10.80;99.90;;;;;;5120030;28;20196;-74
2021/05/14 03:29:55;;;;;;;4.00;3.53;;;10.80;99.90;;;;;;5120357;28;20407;-74
2021/05/14 03:32:21;;;;;;;4.27;3.90;;;10.80;99.90;;;;;;5120076;28;20169;-74
2021/05/14 03:34:46;;;;;;;11.23;3.53;;;10.70;99.90;;;;;;5119736;28;20485;-74
2021/05/14 03:37:12;;;;;;;6.00;4.10;;;10.70;99.90;;;;;;5117042;28;20170;-74
2021/05/14 03:39:46;;;;;;;4.00;3.70;;;10.70;99.90;;;;;;5116361;28;20168;-74
2021/05/14 03:42:16;;;;;;;4.90;4.00;;;10.70;99.90;;;;;;5115907;28;20160;-74
2021/05/14 03:44:42;;;;;;;4.00;3.70;;;10.70;99.90;;;;;;5097513;28;20436;-75
2021/05/14 03:47:08;;;;;;;4.20;3.80;;;10.70;99.90;;;;;;5116340;28;20403;-75
2021/05/14 03:49:38;;;;;;;4.00;3.60;;;10.70;99.90;;;;;;5097641;28;20414;-75
2021/05/14 03:52:12;;;;;;;4.00;3.70;;;10.70;99.90;;;;;;5115525;28;20427;-74
2021/05/14 03:54:39;;;;;;;4.07;3.67;;;10.80;99.90;;;;;;5115374;28;20449;-75
2021/05/14 03:57:05;;;;;;;4.27;3.83;;;10.70;99.90;;;;;;5114260;28;20406;-74
2021/05/14 03:59:31;;;;;;;2.90;2.70;;;10.80;99.90;;;;;;5114629;28;20391;-75
2021/05/14 04:01:57;;;;;;;5.00;3.53;;;10.70;99.90;;;;;;5114326;28;20406;-74
2021/05/14 04:04:24;;;;;;;3.87;3.57;;;10.70;99.90;;;;;;5114283;28;20185;-75
2021/05/14 04:06:50;;;;;;;3.73;3.30;;;10.70;99.90;;;;;;5114031;28;20486;-74
2021/05/14 04:09:19;;;;;;;3.50;3.20;;;10.70;99.90;;;;;;5113874;28;20439;-74
2021/05/14 04:14:30;;;;;;;7.50;3.30;;;10.80;99.90;;;;;;5114178;28;20469;-75
2021/05/14 04:16:56;;;;;;;2.87;2.60;;;10.80;99.90;;;;;;5113817;28;20402;-74
2021/05/14 04:19:24;;;;;;;3.37;3.03;;;10.70;99.90;;;;;;5113946;28;20411;-74
2021/05/14 04:21:51;;;;;;;2.87;2.67;;;10.70;99.90;;;;;;5113957;28;20407;-75
2021/05/14 04:24:16;;;;;;;2.70;2.50;;;10.70;99.90;;;;;;5114158;28;20436;-75
2021/05/14 04:26:42;;;;;;;4.03;3.47;;;10.70;99.90;;;;;;5114611;28;20403;-75
2021/05/14 04:29:07;;;;;;;3.10;2.90;;;10.60;99.90;;;;;;5115368;28;20209;-75
2021/05/14 04:31:33;;;;;;;2.73;2.53;;;10.60;99.90;;;;;;5115119;28;20167;-75
2021/05/14 04:33:58;;;;;;;2.83;2.53;;;10.70;99.90;;;;;;5115097;28;20224;-75
2021/05/14 04:36:24;;;;;;;2.90;2.70;;;10.70;99.90;;;;;;5115299;28;20176;-75
2021/05/14 04:38:49;;;;;;;2.63;2.43;;;10.70;99.90;;;;;;5096955;28;20558;-75
2021/05/14 04:41:15;;;;;;;3.57;2.50;;;10.70;99.90;;;;;;5114505;28;20167;-74
2021/05/14 04:43:40;;;;;;;2.70;2.50;;;10.70;99.90;;;;;;5112208;28;20165;-75
2021/05/14 04:46:06;;;;;;;2.53;2.33;;;10.70;99.90;;;;;;5100696;28;20184;-75
2021/05/14 04:48:31;;;;;;;4.77;3.13;;;10.70;99.90;;;;;;5112247;28;20232;-75
2021/05/14 04:50:57;;;;;;;2.30;2.10;;;10.80;99.90;;;;;;5115383;28;20570;-74
2021/05/14 04:53:28;;;;;;;2.63;2.43;;;10.80;99.90;;;;;;5112984;28;20240;-74
2021/05/14 04:55:54;;;;;;;2.40;2.20;;;10.70;99.90;;;;;;5112289;28;20179;-74
2021/05/14 04:58:19;;;;;;;3.70;2.00;;;10.70;99.90;;;;;;5111844;28;20431;-74
2021/05/14 05:00:45;;;;;;;2.00;1.80;;;10.70;99.90;;;;;;5112653;28;20175;-75
2021/05/14 05:03:10;;;;;;;2.00;1.90;;;10.70;99.90;;;;;;5112066;28;20177;-75
2021/05/14 05:05:36;;;;;;;2.57;2.10;;;10.60;99.90;;;;;;5113616;28;20272;-75
2021/05/14 05:08:02;;;;;;;2.67;2.47;;;10.60;99.90;;;;;;5113642;28;20196;-75
2021/05/14 05:10:28;;;;;;;2.80;2.60;;;10.60;99.90;;;;;;5114346;27;20487;-76
2021/05/14 05:12:53;;;;;;;2.53;2.33;;;10.60;99.90;;;;;;5097026;28;20431;-76
2021/05/14 05:15:19;;;;;;;2.70;2.50;;;10.50;99.90;;;;;;5115383;28;20188;-75
2021/05/14 05:17:44;;;;;;;3.23;2.83;;;10.60;99.90;;;;;;5112910;28;20212;-75
2021/05/14 05:20:10;;;;;;;2.87;2.67;;;10.50;99.90;;;;;;5095149;28;20207;-75
2021/05/14 05:22:36;;;;;;;3.93;3.63;;;10.50;99.90;;;;;;5095865;28;20239;-75
2021/05/14 05:25:02;;;;;;;4.63;2.90;;;10.50;99.90;;;;;;5111938;28;20450;-75
2021/05/14 05:27:28;;;;;;;2.90;2.70;;;10.60;99.90;;;;;;5111140;28;20196;-75
2021/05/14 05:29:53;;;;;;;3.43;3.13;;;10.60;99.90;;;;;;5111593;28;20442;-75
2021/05/14 05:32:19;;;;;;;3.10;2.80;;;10.50;99.90;;;;;;5111083;28;20187;-75
2021/05/14 05:34:44;;;;;;;3.80;2.50;;;10.50;99.90;;;;;;5111386;28;20210;-75
2021/05/14 05:37:10;;;;;;;2.97;2.73;;;10.60;99.90;;;;;;5111283;28;20171;-75
2021/05/14 05:39:35;;;;;;;2.83;2.63;;;10.70;99.90;;;;;;5111351;28;20177;-75
2021/05/14 05:42:01;;;;;;;6.27;4.33;;;10.70;99.90;;;;;;5111382;28;20238;-75
2021/05/14 05:44:26;;;;;;;2.43;2.10;;;10.60;99.90;;;;;;5112000;28;20184;-75
2021/05/14 05:46:52;;;;;;;2.63;2.43;;;10.50;99.90;;;;;;5111919;28;20180;-75
2021/05/14 05:49:18;;;;;;;2.60;2.40;;;10.50;99.90;;;;;;5112479;28;20185;-75
2021/05/14 05:51:44;;;;;;;3.00;2.63;;;10.50;99.90;;;;;;5111619;28;20427;-75
2021/05/14 05:54:09;;;;;;;3.10;2.13;;;10.50;99.90;;;;;;5110933;28;20645;-75
2021/05/14 05:56:35;;;;;;;3.00;2.80;;;10.50;99.90;;;;;;5111746;28;20177;-75
2021/05/14 05:59:01;;;;;;;2.37;2.20;;;10.50;99.90;;;;;;5111780;28;20197;-75
2021/05/14 06:01:27;;;;;;;2.93;2.63;;;10.60;99.90;;;;;;5112167;28;20415;-75
2021/05/14 06:03:52;;;;;;;3.70;3.40;;;10.50;99.90;;;;;;5112411;28;20532;-76
2021/05/14 06:06:18;;;;;;;3.47;3.10;;;10.60;99.90;;;;;;5110941;28;20186;-75
2021/05/14 06:08:44;;;;;;;3.40;2.90;;;10.60;99.90;;;;;;5110768;28;20197;-75
2021/05/14 06:11:09;;;;;;;3.20;2.90;;;10.70;99.90;;;;;;5111062;28;20663;-75
2021/05/14 06:13:35;;;;;;;3.17;2.87;;;10.70;99.90;;;;;;5111073;28;20503;-75
2021/05/14 06:16:02;;;;;;;3.33;3.03;;;10.70;99.90;;;;;;5110530;28;20207;-76
2021/05/14 06:18:34;;;;;;;2.60;2.40;;;10.70;99.90;;;;;;5110140;28;20188;-76
2021/05/14 06:21:00;;;;;;;2.83;2.63;;;10.70;99.90;;;;;;5110850;28;20460;-76
2021/05/14 06:23:25;;;;;;;2.77;2.57;;;10.80;99.90;;;;;;5111570;28;20423;-76
2021/05/14 06:25:51;;;;;;;3.47;3.17;;;10.70;99.90;;;;;;5111999;28;20212;-75
2021/05/14 06:28:18;;;;;;;3.13;2.93;;;10.70;99.90;;;;;;5111242;28;20671;-76
2021/05/14 06:30:44;;;;;;;3.00;2.80;;;10.70;99.90;;;;;;5110460;28;20233;-75
2021/05/14 06:33:10;;;;;;;3.00;2.80;;;10.70;99.90;;;;;;5110555;28;20419;-75
2021/05/14 06:35:36;;;;;;;3.10;2.90;;;10.80;99.90;;;;;;5110947;28;20226;-75
2021/05/14 06:38:01;;;;;;;3.20;2.90;;;10.80;99.90;;;;;;5109900;28;20189;-75
2021/05/14 06:40:27;;;;;;;3.37;3.07;;;10.80;99.90;;;;;;5110667;28;20480;-75
2021/05/14 06:42:52;;;;;;;3.57;3.27;;;10.80;99.90;;;;;;5110484;28;20173;-76
2021/05/14 06:45:18;;;;;;;3.93;3.63;;;10.80;99.90;;;;;;5110784;28;20732;-75
2021/05/14 06:47:43;;;;;;;4.20;3.77;;;10.80;99.90;;;;;;5110211;28;20193;-73
2021/05/14 06:50:09;;;;;;;4.80;4.40;;;10.90;99.90;;;;;;5110250;28;20165;-74
2021/05/14 06:52:36;;;;;;;4.03;3.30;;;10.90;99.90;;;;;;5111123;28;20165;-73
2021/05/14 06:55:08;;;;;;;3.37;3.10;;;11.00;99.90;;;;;;5111763;28;20801;-75
2021/05/14 06:57:34;;;;;;;3.90;3.43;;;11.00;99.90;;;;;;5110835;28;20430;-75
2021/05/14 06:59:59;;;;;;;4.30;3.23;;;10.90;99.90;;;;;;5110994;28;20478;-74
2021/05/14 07:02:25;;;;;;;4.13;3.73;;;11.00;99.90;;;;;;5110414;28;20505;-74
2021/05/14 07:04:50;;;;;;;3.83;3.53;;;10.90;99.90;;;;;;5110865;28;20173;-75
2021/05/14 07:07:17;;;;;;;7.23;3.93;;;11.00;99.90;;;;;;5110792;28;20601;-75
2021/05/14 07:09:46;;;;;;;5.30;4.80;;;10.90;99.90;;;;;;5109348;28;20195;-75
2021/05/14 07:12:11;;;;;;;4.20;3.80;;;11.00;99.90;;;;;;5112112;28;20426;-74
2021/05/14 07:14:37;;;;;;;4.17;3.30;;;10.80;99.90;;;;;;5113812;28;20446;-74
2021/05/14 07:17:03;;;;;;;4.70;3.60;;;10.60;99.90;;;;;;5113775;28;20609;-75
2021/05/14 07:19:28;;;;;;;4.40;3.93;;;10.60;99.90;;;;;;5113908;28;20679;-75
2021/05/14 07:21:54;;;;;;;3.77;3.43;;;10.50;99.90;;;;;;5114038;28;20260;-75
2021/05/14 07:24:20;;;;;;;3.93;3.53;;;10.60;99.90;;;;;;5113841;28;20229;-75
2021/05/14 07:26:46;;;;;;;4.10;3.40;;;10.50;99.90;;;;;;5113844;28;20410;-75
2021/05/14 07:29:11;;;;;;;3.80;3.50;;;10.50;99.90;;;;;;5114243;28;20241;-75
2021/05/14 07:31:37;;;;;;;3.50;3.20;;;10.70;99.90;;;;;;5100615;28;20181;-76
2021/05/14 07:34:03;;;;;;;3.90;3.60;;;10.50;99.90;;;;;;5116213;28;20225;-74
2021/05/14 07:36:28;;;;;;;3.90;3.50;;;10.60;99.90;;;;;;5117265;28;20180;-76
2021/05/14 07:38:54;;;;;;;3.70;3.13;;;10.50;99.90;;;;;;5114688;28;20204;-73
2021/05/14 07:41:20;;;;;;;3.07;2.87;;;10.50;99.90;;;;;;5116104;28;20180;-77
2021/05/14 07:43:46;;;;;;;2.87;2.67;;;10.70;99.90;;;;;;5108403;28;20446;-77
2021/05/14 07:46:11;;;;;;;3.60;2.80;;;10.80;99.90;;;;;;5107734;28;20190;-75
2021/05/14 07:48:37;;;;;;;3.50;3.20;;;10.60;99.90;;;;;;5101093;28;20210;-76
2021/05/14 07:51:03;;;;;;;2.90;2.70;;;10.60;99.90;;;;;;5098470;27;20192;-76
2021/05/14 07:53:28;;;;;;;2.63;2.07;;;10.70;99.90;;;;;;5112010;28;20293;-76
2021/05/14 07:55:54;;;;;;;2.90;2.70;;;10.70;99.90;;;;;;5115293;28;20177;-76
2021/05/14 07:58:20;;;;;;;3.03;2.70;;;10.90;99.90;;;;;;5114875;28;20292;-76
2021/05/14 08:00:48;;;;;;;2.27;2.07;;;10.80;99.90;;;;;;5115616;28;20547;-75
2021/05/14 08:03:14;;;;;;;3.57;2.57;;;10.60;99.90;;;;;;5115583;28;20418;-72
2021/05/14 08:05:40;;;;;;;2.80;2.60;;;10.70;99.90;;;;;;5115619;28;20437;-75
2021/05/14 08:08:12;;;;;;;3.50;3.03;;;10.80;99.90;;;;;;5113071;28;20253;-74
2021/05/14 08:10:38;;;;;;;2.30;1.90;;;10.90;99.90;;;;;;5106955;28;20563;-75
2021/05/14 08:13:04;;;;;;;1.90;1.80;;;10.70;99.90;;;;;;5110055;28;20410;-76
2021/05/14 08:15:30;;;;;;;1.60;1.50;;;10.80;99.90;;;;;;5112124;28;20188;-75
2021/05/14 08:17:56;;;;;;;3.50;1.73;;;10.90;99.90;;;;;;5105123;28;20560;-75
2021/05/14 08:20:22;;;;;;;2.90;2.53;;;10.90;99.90;;;;;;5099742;28;20434;-75
2021/05/14 08:22:49;;;;;;;3.00;2.70;;;10.90;99.90;;;;;;5106633;28;20269;-74
2021/05/14 08:25:14;;;;;;;2.17;2.00;;;11.00;99.90;;;;;;5108820;28;20423;-74
2021/05/14 08:27:40;;;;;;;2.70;2.07;;;11.10;99.90;;;;;;5110207;28;20465;-75
2021/05/14 08:30:07;;;;;;;2.00;1.80;;;11.20;99.90;;;;;;5111204;28;20177;-75
2021/05/14 08:32:33;;;;;;;1.63;1.53;;;11.20;99.90;;;;;;5089329;28;20447;-74
2021/05/14 08:34:58;;;;;;;1.80;1.70;;;10.90;99.90;;;;;;5110154;28;20982;-75
2021/05/14 08:37:24;;;;;;;3.23;2.10;;;11.10;99.90;;;;;;5111047;28;20243;-75
2021/05/14 08:39:50;;;;;;;1.90;1.80;;;11.10;99.90;;;;;;5109089;28;20196;-74
2021/05/14 08:42:15;;;;;;;2.10;1.83;;;10.80;99.90;;;;;;5110414;28;20185;-74
2021/05/14 08:44:42;;;;;;;1.63;1.53;;;10.70;99.90;;;;;;5092796;28;20423;-75
2021/05/14 08:47:08;;;;;;;2.43;2.23;;;10.80;99.90;;;;;;5110829;28;20251;-75
2021/05/14 08:49:36;;;;;;;2.13;1.73;;;10.70;99.90;;;;;;5112323;28;20762;-75
2021/05/14 08:52:06;;;;;;;1.60;1.50;;;10.80;99.90;;;;;;5111574;28;20426;-75
2021/05/14 08:54:34;;;;;;;1.57;1.47;;;10.70;99.90;;;;;;5110085;28;20516;-75
2021/05/14 08:57:00;;;;;;;1.87;1.77;;;10.80;99.90;;;;;;5109599;28;20427;-75
2021/05/14 08:59:25;;;;;;;2.10;1.73;;;10.80;99.90;;;;;;5107990;28;20454;-75
2021/05/14 09:01:51;;;;;;;2.23;2.03;;;10.70;99.90;;;;;;5114379;28;20932;-75
2021/05/14 09:04:18;;;;;;;2.20;1.80;;;10.60;99.90;;;;;;5113578;28;20202;-76
2021/05/14 09:06:44;;;;;;;2.00;1.90;;;10.50;99.90;;;;;;5115768;28;20185;-75
2021/05/14 09:09:12;;;;;;;2.30;1.90;;;10.40;99.90;;;;;;5114756;28;20827;-75
2021/05/14 09:11:40;;;;;;;2.10;1.90;;;10.60;99.90;;;;;;5117407;28;20809;-77
2021/05/14 09:14:07;;;;;;;3.00;2.23;;;10.60;99.90;;;;;;5126856;27;20462;-77
2021/05/14 09:16:44;;;;;;;1.90;1.70;;;10.60;99.90;;;;;;5118257;27;20420;-76
2021/05/14 09:19:10;;;;;;;2.33;2.13;;;10.50;99.90;;;;;;5105060;28;20784;-75
2021/05/14 09:21:36;;;;;;;2.47;1.90;;;10.50;99.90;;;;;;5112989;28;20478;-76
2021/05/14 09:24:02;;;;;;;1.93;1.83;;;10.60;99.90;;;;;;5113563;28;20422;-76
2021/05/14 09:26:29;;;;;;;2.30;2.10;;;10.60;99.90;;;;;;5113708;28;20437;-76
2021/05/14 09:28:55;;;;;;;2.60;2.40;;;10.60;99.90;;;;;;5108205;28;20977;-75
2021/05/14 09:31:24;;;;;;;2.70;2.50;;;10.60;99.90;;;;;;5115214;28;20415;-76
2021/05/14 09:34:01;;;;;;;2.60;2.40;;;10.80;99.90;;;;;;5110811;28;20208;-75
2021/05/14 09:36:31;;;;;;;3.53;2.70;;;10.70;99.90;;;;;;5109947;28;20438;-75
2021/05/14 09:39:00;;;;;;;2.60;2.40;;;10.50;99.90;;;;;;5114916;28;20458;-76
2021/05/14 09:41:29;;;;;;;2.73;2.53;;;10.60;99.90;;;;;;5115042;28;20409;-75
2021/05/14 09:43:59;;;;;;;5.50;2.87;;;10.80;99.90;;;;;;5111443;28;20465;-76
2021/05/14 09:46:33;;;;;;;2.70;2.50;;;10.80;99.90;;;;;;5079118;28;20459;-75
2021/05/14 09:49:11;;;;;;;2.40;2.17;;;10.60;99.90;;;;;;5098601;28;20487;-75
2021/05/14 09:51:47;;;;;;;2.83;2.30;;;10.60;99.90;;;;;;5108128;28;20426;-76
2021/05/14 09:54:30;;;;;;;2.73;2.53;;;10.40;99.90;;;;;;5103746;28;20451;-76
2021/05/14 09:59:51;;;;;;;5.20;2.13;;;10.60;99.90;;;;;;5100304;28;20480;-75
2021/05/14 10:02:23;;;;;;;3.50;2.00;;;10.80;99.90;;;;;;5084460;28;20522;-73
2021/05/14 10:04:49;;;;;;;1.90;1.70;;;10.70;99.90;;;;;;5099978;28;20419;-75
2021/05/14 10:07:16;;;;;;;2.07;1.87;;;10.50;99.90;;;;;;5098343;28;20406;-75
2021/05/14 10:09:44;;;;;;;2.80;1.50;;;10.60;99.90;;;;;;5078697;28;20442;-75
2021/05/14 10:12:13;;;;;;;2.50;1.73;;;10.50;99.90;;;;;;5097173;28;20419;-75
2021/05/14 10:14:39;;;;;;;3.57;2.37;;;10.40;99.90;;;;;;5078803;28;21063;-75
2021/05/14 10:17:06;;;;;;;4.37;2.10;;;10.40;99.90;;;;;;5103670;28;20433;-75
2021/05/14 10:19:34;;;;;;;3.37;2.23;;;10.50;99.90;;;;;;5117100;28;20461;-75
2021/05/14 10:22:00;;;;;;;3.33;2.33;;;10.40;99.90;;;;;;5118003;28;20407;-75
2021/05/14 10:24:38;;;;;;;3.40;2.50;;;10.30;99.90;;;;;;5117251;28;20535;-76
2021/05/14 10:27:14;;;;;;;2.03;1.87;;;10.50;99.90;;;;;;5117965;28;20169;-76
2021/05/14 10:29:43;;;;;;;2.93;2.03;;;10.50;99.90;;;;;;5083705;28;20427;-76
2021/05/14 10:32:09;;;;;;;2.80;2.20;;;10.50;99.90;;;;;;5099168;28;20422;-76
2021/05/14 10:34:35;;;;;;;3.17;2.27;;;10.40;99.90;;;;;;5096531;28;20452;-76
2021/05/14 10:37:00;;;;;;;2.50;2.10;;;10.40;99.90;;;;;;5088485;28;20522;-74
2021/05/14 10:39:40;;;;;;;4.07;2.50;;;10.20;99.90;;;;;;5094491;28;20192;-76
2021/05/14 10:42:11;;;;;;;2.47;1.90;;;10.10;99.90;;;;;;5101573;28;20177;-73
2021/05/14 10:44:44;;;;;;;2.30;2.10;;;10.20;99.90;;;;;;5095956;28;20419;-75
2021/05/14 10:47:22;;;;;;;6.17;2.33;;;10.20;99.90;;;;;;5085803;28;20549;-75
2021/05/14 10:50:05;;;;;;;1.87;1.77;;;10.40;99.90;;;;;;5106675;28;20498;-76
2021/05/14 10:52:32;;;;;;;2.60;2.40;;;10.60;99.90;;;;;;5107674;28;20410;-75
2021/05/14 10:54:58;;;;;;;4.97;2.83;;;10.50;99.90;;;;;;5114329;28;20462;-76
2021/05/14 10:57:39;;;;;;;3.27;2.40;;;10.70;99.90;;;;;;5105878;28;20417;-76
2021/05/14 11:00:40;;;;;;;4.43;2.47;;;10.90;99.90;;;;;;5107006;28;20963;-75
2021/05/14 11:03:19;;;;;;;2.93;2.43;;;10.80;99.90;;;;;;5013644;28;21029;-75
2021/05/14 11:05:49;;;;;;;3.00;2.00;;;11.00;99.90;;;;;;5074572;28;20399;-76
2021/05/14 11:08:33;;;;;;;2.70;2.27;;;10.80;99.90;;;;;;5086934;28;20506;-75
2021/05/14 11:11:00;;;;;;;2.90;1.70;;;11.10;99.90;;;;;;5101611;28;20431;-73
2021/05/14 11:13:51;;;;;;;3.10;2.00;;;11.60;99.90;;;;;;5111375;28;20463;-74
2021/05/14 11:16:29;;;;;;;5.03;2.57;;;11.20;99.90;;;;;;5093526;28;20418;-74
2021/05/14 11:18:55;;;;;;;2.57;1.93;;;11.70;99.90;;;;;;5113524;28;20427;-75
2021/05/14 11:21:21;;;;;;;6.07;2.90;;;12.00;99.90;;;;;;5101758;28;20498;-76
2021/05/14 11:24:04;;;;;;;4.23;2.20;;;12.30;99.90;;;;;;5083428;28;20427;-76
2021/05/14 11:26:30;;;;;;;3.73;2.90;;;12.40;99.90;;;;;;5083153;28;20434;-76
2021/05/14 11:28:55;;;;;;;4.20;2.33;;;12.40;99.90;;;;;;5113841;28;20441;-74
2021/05/14 11:31:25;;;;;;;2.37;2.17;;;12.50;99.90;;;;;;5121753;28;20164;-73
2021/05/14 11:33:53;;;;;;;5.13;2.70;;;12.10;99.90;;;;;;5119349;28;20207;-74
2021/05/14 11:36:19;;;;;;;2.30;2.07;;;12.10;99.90;;;;;;5109839;28;20448;-74
2021/05/14 11:38:49;;;;;;;2.50;2.30;;;12.20;99.90;;;;;;5099815;28;20424;-73
2021/05/14 11:41:16;;;;;;;2.90;2.40;;;11.80;99.90;;;;;;5105034;28;20407;-74
2021/05/14 11:43:52;;;;;;;3.17;2.30;;;12.00;99.90;;;;;;5109226;28;20483;-74
2021/05/14 11:46:18;;;;;;;3.00;2.20;;;12.20;99.90;;;;;;5110316;28;20406;-74
2021/05/14 11:48:44;;;;;;;4.23;2.70;;;11.90;99.90;;;;;;5091929;28;20442;-74
2021/05/14 11:51:09;;;;;;;5.50;2.70;;;11.70;99.90;;;;;;5106950;28;20202;-74
2021/05/14 11:53:35;;;;;;;3.70;2.63;;;11.80;99.90;;;;;;5091926;28;20190;-74
2021/05/14 11:56:03;;;;;;;3.40;2.77;;;12.00;99.90;;;;;;5099430;28;20632;-74
2021/05/14 11:58:28;;;;;;;3.40;2.90;;;11.70;99.90;;;;;;5099320;28;20181;-73
2021/05/14 12:00:56;;;;;;;3.87;2.90;;;11.80;99.90;;;;;;5101213;28;20490;-73
2021/05/14 12:03:25;;;;;;;9.13;2.90;;;11.90;99.90;;;;;;5086818;28;20260;-74
2021/05/14 12:05:52;;;;;;;6.97;3.13;;;11.90;99.90;;;;;;5099503;28;20418;-74
2021/05/14 12:08:19;;;;;;;5.07;2.77;;;11.50;99.90;;;;;;5107761;28;20427;-74
2021/05/14 12:10:55;;;;;;;4.90;2.73;;;11.30;99.90;;;;;;5100749;28;20415;-73
2021/05/14 12:13:22;;;;;;;5.63;3.20;;;11.60;99.90;;;;;;5099750;28;20408;-74
2021/05/14 12:15:57;;;;;;;4.03;3.20;;;11.50;99.90;;;;;;5099772;28;20411;-73
2021/05/14 12:18:22;;;;;;;2.80;2.60;;;11.60;99.90;;;;;;5099867;28;20475;-74
2021/05/14 12:20:48;;;;;;;5.27;3.90;;;11.40;99.90;;;;;;5082298;28;20435;-74
2021/05/14 12:23:14;;;;;;;4.50;3.23;;;11.60;99.90;;;;;;5101685;28;20193;-74
2021/05/14 12:25:54;;;;;;;3.30;3.00;;;11.80;99.90;;;;;;5085781;28;20179;-74
2021/05/14 12:28:45;;;;;;;3.33;3.03;;;11.40;99.90;;;;;;5119526;28;20429;-74
2021/05/14 12:31:13;;;;;;;5.03;3.23;;;11.30;99.90;;;;;;5086125;28;20922;-74
2021/05/14 12:34:02;;;;;;;3.33;3.07;;;11.00;99.90;;;;;;5099496;28;20447;-74
2021/05/14 12:36:35;;;;;;;2.90;2.60;;;11.20;99.90;;;;;;5116876;28;20414;-75
2021/05/14 12:39:11;;;;;;;3.53;2.97;;;11.20;99.90;;;;;;5081273;28;20432;-75
2021/05/14 12:41:51;;;;;;;2.93;2.73;;;11.10;99.90;;;;;;5110194;28;20407;-74
2021/05/14 12:44:21;;;;;;;4.20;3.40;;;11.10;99.90;;;;;;5115591;28;20430;-74
2021/05/14 12:46:56;;;;;;;4.60;3.10;;;11.10;99.90;;;;;;5116798;28;20410;-74
2021/05/14 12:49:21;;;;;;;5.57;2.97;;;10.90;99.90;;;;;;5118716;28;20418;-74
2021/05/14 12:52:02;;;;;;;4.07;3.60;;;10.90;99.90;;;;;;5122577;28;20462;-76
2021/05/14 12:54:28;;;;;;;4.60;2.97;;;10.80;99.90;;;;;;5115037;28;20611;-76